createdAt,value
2018-08-23T00:00:36.549Z,16.25
2018-08-23T00:03:13.084Z,16.20
2018-08-23T00:05:45.678Z,16.20
2018-08-23T00:08:13.788Z,16.15
2018-08-23T00:10:41.804Z,16.05
2018-08-23T00:13:09.967Z,16.02
2018-08-23T00:15:37.979Z,15.96
2018-08-23T00:18:06.062Z,15.94
2018-08-23T00:20:36.692Z,15.91
2018-08-23T00:23:05.419Z,15.83
2018-08-23T00:25:34.212Z,15.80
2018-08-23T00:28:02.441Z,15.76
2018-08-23T00:30:31.740Z,15.78
2018-08-23T00:33:01.526Z,15.86
2018-08-23T00:35:32.554Z,15.80
2018-08-23T00:38:01.134Z,15.75
2018-08-23T00:40:29.248Z,15.87
2018-08-23T00:43:02.945Z,15.76
2018-08-23T00:45:30.923Z,15.87
2018-08-23T00:47:58.958Z,15.94
2018-08-23T00:50:59.212Z,15.96
2018-08-23T00:53:28.567Z,15.92
2018-08-23T00:56:13.760Z,15.89
2018-08-23T00:58:51.901Z,15.86
2018-08-23T01:01:19.974Z,15.89
2018-08-23T01:03:47.970Z,15.81
2018-08-23T01:06:19.016Z,15.79
2018-08-23T01:08:46.994Z,15.95
2018-08-23T01:11:15.053Z,15.92
2018-08-23T01:13:43.452Z,15.93
2018-08-23T01:16:13.009Z,15.94
2018-08-23T01:18:41.161Z,16.15
2018-08-23T01:21:09.956Z,16.42
2018-08-23T01:23:38.689Z,16.58
2018-08-23T01:26:07.608Z,16.40
2018-08-23T01:28:35.786Z,16.25
2018-08-23T01:31:23.068Z,16.37
2018-08-23T01:33:54.790Z,16.11
2018-08-23T01:36:32.507Z,16.15
2018-08-23T01:39:06.859Z,16.13
2018-08-23T01:41:34.909Z,16.17
2018-08-23T01:44:02.896Z,16.11
2018-08-23T01:46:37.245Z,16.29
2018-08-23T01:49:05.660Z,16.07
2018-08-23T01:51:34.292Z,15.93
2018-08-23T01:54:02.392Z,15.92
2018-08-23T01:56:30.381Z,15.91
2018-08-23T01:58:58.424Z,15.96
2018-08-23T02:01:26.438Z,16.00
2018-08-23T02:03:54.536Z,15.99
2018-08-23T02:06:27.008Z,15.97
2018-08-23T02:08:54.996Z,16.07
2018-08-23T02:11:23.071Z,16.08
2018-08-23T02:13:51.062Z,16.06
2018-08-23T02:16:19.209Z,16.03
2018-08-23T02:18:47.329Z,16.17
2018-08-23T02:21:15.420Z,16.50
2018-08-23T02:23:46.666Z,16.26
2018-08-23T02:26:14.958Z,16.00
2018-08-23T02:28:45.157Z,15.97
2018-08-23T02:31:13.243Z,15.90
2018-08-23T02:33:41.250Z,15.97
2018-08-23T02:36:16.182Z,16.01
2018-08-23T02:38:45.232Z,16.03
2018-08-23T02:41:13.424Z,16.06
2018-08-23T02:43:41.469Z,16.13
2018-08-23T02:46:09.511Z,16.07
2018-08-23T02:48:37.643Z,16.04
2018-08-23T02:51:05.901Z,16.06
2018-08-23T02:53:37.894Z,16.07
2018-08-23T02:56:07.154Z,16.15
2018-08-23T02:58:59.462Z,16.17
2018-08-23T03:01:30.172Z,16.32
2018-08-23T03:04:07.957Z,16.31
2018-08-23T03:09:30.826Z,16.24
2018-08-23T03:11:59.951Z,16.28
2018-08-23T03:14:28.630Z,16.32
2018-08-23T03:17:16.206Z,16.37
2018-08-23T03:19:59.871Z,16.50
2018-08-23T03:22:28.716Z,16.95
2018-08-23T03:24:58.341Z,16.92
2018-08-23T03:27:26.793Z,16.71
2018-08-23T03:29:54.900Z,16.62
2018-08-23T03:32:22.969Z,16.55
2018-08-23T03:34:50.998Z,16.58
2018-08-23T03:37:19.187Z,16.50
2018-08-23T03:39:47.518Z,16.43
2018-08-23T03:42:15.472Z,16.36
2018-08-23T03:44:43.454Z,16.39
2018-08-23T03:47:11.557Z,16.47
2018-08-23T03:49:45.420Z,16.46
2018-08-23T03:52:16.114Z,16.50
2018-08-23T03:54:57.977Z,16.55
2018-08-23T03:57:31.437Z,16.55
2018-08-23T03:59:59.656Z,16.59
2018-08-23T04:02:27.715Z,16.59
2018-08-23T04:05:13.742Z,16.68
2018-08-23T04:07:43.007Z,17.04
2018-08-23T04:10:11.198Z,17.79
2018-08-23T04:12:40.753Z,18.63
2018-08-23T04:15:22.933Z,19.24
2018-08-23T04:17:51.417Z,20.09
2018-08-23T04:20:19.524Z,20.64
2018-08-23T04:22:47.659Z,20.70
2018-08-23T04:25:15.797Z,21.22
2018-08-23T04:27:44.036Z,21.50
2018-08-23T04:30:12.139Z,20.74
2018-08-23T04:32:48.676Z,21.37
2018-08-23T04:35:20.192Z,22.22
2018-08-23T04:37:49.052Z,22.59
2018-08-23T04:40:17.259Z,22.96
2018-08-23T04:42:45.375Z,23.47
2018-08-23T04:45:19.075Z,22.92
2018-08-23T04:47:52.464Z,23.01
2018-08-23T04:50:20.874Z,23.61
2018-08-23T04:52:48.989Z,23.89
2018-08-23T04:55:17.079Z,23.82
2018-08-23T04:57:45.198Z,24.35
2018-08-23T05:00:13.298Z,24.26
2018-08-23T05:02:41.410Z,24.22
2018-08-23T05:05:09.472Z,24.93
2018-08-23T05:07:37.573Z,24.71
2018-08-23T05:10:06.268Z,25.12
2018-08-23T05:12:34.436Z,25.29
2018-08-23T05:15:02.516Z,25.14
2018-08-23T05:17:30.683Z,25.54
2018-08-23T05:19:58.927Z,25.21
2018-08-23T05:22:27.041Z,25.68
2018-08-23T05:25:14.035Z,25.37
2018-08-23T05:27:58.701Z,25.78
2018-08-23T05:30:28.090Z,24.14
2018-08-23T05:33:01.946Z,22.73
2018-08-23T05:35:31.028Z,22.86
2018-08-23T05:37:59.653Z,22.93
2018-08-23T05:40:27.967Z,22.64
2018-08-23T05:42:56.630Z,21.84
2018-08-23T05:45:35.291Z,23.08
2018-08-23T05:48:16.367Z,23.09
2018-08-23T05:50:44.455Z,24.27
2018-08-23T05:53:14.554Z,25.14
2018-08-23T05:55:42.744Z,24.88
2018-08-23T05:58:18.406Z,25.21
2018-08-23T06:00:46.551Z,25.74
2018-08-23T06:03:15.567Z,25.81
2018-08-23T06:05:44.563Z,25.65
2018-08-23T06:08:12.955Z,25.92
2018-08-23T06:10:41.074Z,25.80
2018-08-23T06:13:09.362Z,25.48
2018-08-23T06:15:45.918Z,25.54
2018-08-23T06:18:16.436Z,25.62
2018-08-23T06:20:44.589Z,25.18
2018-08-23T06:23:13.295Z,25.37
2018-08-23T06:25:41.817Z,25.32
2018-08-23T06:28:19.840Z,25.81
2018-08-23T06:30:48.028Z,25.09
2018-08-23T06:33:34.806Z,25.32
2018-08-23T06:36:03.238Z,25.74
2018-08-23T06:38:32.411Z,25.73
2018-08-23T06:41:02.409Z,25.62
2018-08-23T06:43:31.674Z,25.73
2018-08-23T06:46:00.510Z,26.03
2018-08-23T06:48:28.806Z,26.26
2018-08-23T06:50:58.181Z,26.11
2018-08-23T06:53:34.389Z,25.90
2018-08-23T06:56:02.546Z,26.09
2018-08-23T06:58:30.653Z,26.08
2018-08-23T07:00:59.030Z,26.22
2018-08-23T07:03:27.219Z,26.56
2018-08-23T07:05:55.583Z,26.43
2018-08-23T07:08:23.901Z,26.39
2018-08-23T07:11:02.447Z,26.38
2018-08-23T07:13:30.791Z,26.84
2018-08-23T07:16:00.458Z,27.19
2018-08-23T07:18:30.482Z,27.35
2018-08-23T07:20:58.661Z,27.34
2018-08-23T07:23:33.731Z,26.85
2018-08-23T07:26:03.799Z,27.13
2018-08-23T07:28:33.134Z,27.65
2018-08-23T07:31:02.062Z,27.37
2018-08-23T07:33:32.756Z,27.36
2018-08-23T07:36:15.512Z,27.85
2018-08-23T07:38:44.879Z,27.19
2018-08-23T07:41:13.291Z,26.85
2018-08-23T07:43:41.585Z,27.42
2018-08-23T07:46:09.851Z,27.13
2018-08-23T07:48:38.153Z,27.01
2018-08-23T07:51:25.552Z,27.39
2018-08-23T07:53:57.041Z,27.42
2018-08-23T07:56:28.021Z,27.54
2018-08-23T07:58:57.632Z,28.27
2018-08-23T08:01:30.198Z,28.43
2018-08-23T08:03:59.367Z,28.75
2018-08-23T08:06:28.362Z,28.62
2018-08-23T08:08:57.820Z,28.57
2018-08-23T08:11:26.588Z,28.23
2018-08-23T08:14:00.689Z,28.31
2018-08-23T08:16:33.310Z,27.91
2018-08-23T08:19:01.628Z,28.03
2018-08-23T08:21:31.779Z,27.76
2018-08-23T08:24:01.293Z,27.61
2018-08-23T08:26:31.528Z,28.06
2018-08-23T08:29:00.441Z,28.36
2018-08-23T08:31:29.135Z,27.88
2018-08-23T08:34:05.524Z,28.38
2018-08-23T08:36:34.222Z,27.83
2018-08-23T08:39:17.005Z,27.86
2018-08-23T08:41:47.433Z,28.19
2018-08-23T08:44:16.496Z,28.01
2018-08-23T08:46:46.643Z,27.76
2018-08-23T08:49:15.184Z,27.89
2018-08-23T08:51:43.596Z,27.95
2018-08-23T08:54:14.613Z,27.83
2018-08-23T08:56:45.530Z,27.69
2018-08-23T08:59:15.684Z,27.67
2018-08-23T09:01:45.113Z,27.41
2018-08-23T09:04:19.026Z,27.51
2018-08-23T09:06:47.618Z,27.98
2018-08-23T09:09:33.877Z,27.57
2018-08-23T09:12:08.329Z,27.50
2018-08-23T09:14:37.522Z,27.52
2018-08-23T09:17:22.201Z,27.89
2018-08-23T09:19:59.183Z,28.29
2018-08-23T09:22:27.363Z,27.64
2018-08-23T09:24:55.490Z,27.98
2018-08-23T09:27:23.896Z,27.93
2018-08-23T09:29:52.118Z,27.82
2018-08-23T09:32:25.848Z,28.09
2018-08-23T09:34:58.570Z,27.57
2018-08-23T09:37:27.468Z,27.91
2018-08-23T09:39:55.667Z,28.37
2018-08-23T09:42:24.372Z,28.31
2018-08-23T09:45:11.585Z,28.53
2018-08-23T09:47:39.715Z,28.12
2018-08-23T09:50:07.891Z,28.17
2018-08-23T09:52:43.604Z,28.30
2018-08-23T09:55:13.018Z,28.54
2018-08-23T09:57:42.616Z,28.74
2018-08-23T10:00:12.910Z,28.74
2018-08-23T10:02:46.565Z,28.19
2018-08-23T10:05:20.124Z,28.24
2018-08-23T10:07:53.671Z,28.29
2018-08-23T10:10:27.317Z,28.43
2018-08-23T10:13:01.209Z,28.16
2018-08-23T10:15:34.923Z,27.78
2018-08-23T10:18:09.102Z,27.96
2018-08-23T10:20:45.185Z,27.93
2018-08-23T10:23:21.822Z,27.75
2018-08-23T10:25:51.320Z,27.76
2018-08-23T10:28:22.271Z,27.87
2018-08-23T10:30:50.860Z,28.03
2018-08-23T10:33:19.506Z,28.28
2018-08-23T10:35:51.536Z,28.19
2018-08-23T10:38:21.455Z,28.28
2018-08-23T10:40:51.031Z,28.20
2018-08-23T10:43:24.917Z,28.39
2018-08-23T10:45:53.564Z,28.68
2018-08-23T10:48:21.887Z,28.69
2018-08-23T10:50:50.936Z,28.75
2018-08-23T10:53:19.586Z,28.46
2018-08-23T10:55:47.997Z,28.92
2018-08-23T10:58:16.492Z,28.93
2018-08-23T11:00:45.006Z,29.02
2018-08-23T11:03:13.185Z,28.89
2018-08-23T11:05:41.854Z,28.51
2018-08-23T11:08:16.088Z,28.31
2018-08-23T11:10:49.787Z,28.38
2018-08-23T11:13:23.753Z,28.09
2018-08-23T11:15:59.704Z,27.96
2018-08-23T11:18:34.122Z,27.92
2018-08-23T11:21:02.579Z,27.89
2018-08-23T11:23:31.122Z,27.99
2018-08-23T11:25:59.659Z,28.19
2018-08-23T11:28:29.413Z,28.33
2018-08-23T11:31:00.408Z,28.37
2018-08-23T11:33:29.134Z,28.20
2018-08-23T11:35:57.820Z,28.45
2018-08-23T11:38:26.188Z,28.36
2018-08-23T11:40:54.631Z,28.39
2018-08-23T11:43:23.330Z,28.06
2018-08-23T11:46:12.933Z,28.29
2018-08-23T11:48:42.888Z,28.22
2018-08-23T11:51:12.170Z,27.93
2018-08-23T11:53:40.991Z,28.12
2018-08-23T11:56:09.646Z,27.89
2018-08-23T11:58:38.312Z,28.10
2018-08-23T12:01:10.135Z,27.88
2018-08-23T12:03:39.367Z,28.08
2018-08-23T12:06:09.110Z,28.21
2018-08-23T12:08:37.353Z,28.46
2018-08-23T12:11:05.983Z,28.18
2018-08-23T12:13:34.549Z,28.19
2018-08-23T12:16:03.967Z,28.21
2018-08-23T12:18:34.897Z,28.50
2018-08-23T12:21:03.700Z,27.93
2018-08-23T12:23:32.120Z,28.16
2018-08-23T12:26:00.860Z,28.23
2018-08-23T12:28:34.909Z,28.19
2018-08-23T12:31:03.599Z,28.03
2018-08-23T12:33:32.093Z,28.10
2018-08-23T12:36:00.243Z,28.06
2018-08-23T12:38:34.041Z,28.06
2018-08-23T12:41:07.733Z,27.87
2018-08-23T12:43:46.811Z,28.26
2018-08-23T12:46:15.533Z,28.38
2018-08-23T12:48:46.937Z,28.18
2018-08-23T12:51:16.081Z,28.01
2018-08-23T12:53:45.707Z,27.72
2018-08-23T12:56:15.657Z,27.92
2018-08-23T12:58:44.083Z,27.87
2018-08-23T13:01:12.300Z,28.05
2018-08-23T13:03:40.776Z,27.95
2018-08-23T13:06:09.314Z,28.21
2018-08-23T13:08:37.595Z,28.08
2018-08-23T13:11:07.068Z,27.59
2018-08-23T13:13:36.849Z,27.61
2018-08-23T13:16:06.926Z,27.81
2018-08-23T13:18:35.379Z,27.87
2018-08-23T13:21:03.759Z,27.93
2018-08-23T13:23:31.994Z,27.99
2018-08-23T13:26:00.286Z,27.94
2018-08-23T13:28:28.653Z,27.79
2018-08-23T13:30:56.842Z,27.78
2018-08-23T13:33:25.879Z,27.95
2018-08-23T13:35:53.971Z,27.85
2018-08-23T13:38:22.172Z,27.50
2018-08-23T13:40:50.445Z,27.61
2018-08-23T13:43:18.708Z,27.66
2018-08-23T13:45:46.855Z,27.62
2018-08-23T13:48:15.136Z,27.59
2018-08-23T13:50:43.230Z,27.58
2018-08-23T13:53:11.369Z,27.64
2018-08-23T13:55:39.467Z,27.66
2018-08-23T13:58:07.684Z,27.56
2018-08-23T14:00:38.431Z,27.76
2018-08-23T14:03:07.490Z,27.71
2018-08-23T14:05:35.915Z,27.72
2018-08-23T14:08:04.069Z,27.56
2018-08-23T14:10:32.245Z,27.56
2018-08-23T14:13:00.342Z,27.47
2018-08-23T14:15:34.258Z,27.51
2018-08-23T14:18:02.414Z,27.48
2018-08-23T14:20:30.639Z,27.49
2018-08-23T14:22:58.816Z,27.50
2018-08-23T14:25:27.033Z,27.57
2018-08-23T14:27:55.519Z,27.48
2018-08-23T14:30:23.688Z,27.46
2018-08-23T14:32:51.819Z,27.51
2018-08-23T14:35:20.038Z,27.63
2018-08-23T14:37:48.743Z,27.48
2018-08-23T14:40:17.576Z,27.38
2018-08-23T14:42:45.718Z,27.21
2018-08-23T14:45:18.257Z,27.18
2018-08-23T14:47:52.134Z,27.16
2018-08-23T14:50:20.298Z,27.18
2018-08-23T14:52:48.544Z,27.20
2018-08-23T14:55:22.483Z,27.18
2018-08-23T14:57:50.697Z,27.07
2018-08-23T15:00:18.874Z,27.05
2018-08-23T15:02:47.071Z,27.02
2018-08-23T15:05:15.575Z,27.00
2018-08-23T15:07:43.804Z,26.98
2018-08-23T15:10:11.868Z,27.00
2018-08-23T15:12:40.175Z,27.02
2018-08-23T15:15:08.838Z,26.96
2018-08-23T15:17:36.948Z,26.92
2018-08-23T15:20:05.403Z,26.86
2018-08-23T15:22:33.496Z,26.87
2018-08-23T15:25:01.610Z,26.72
2018-08-23T15:27:32.274Z,26.76
2018-08-23T15:30:00.805Z,26.67
2018-08-23T15:32:28.972Z,26.63
2018-08-23T15:34:57.125Z,26.62
2018-08-23T15:37:25.502Z,26.55
2018-08-23T15:39:53.794Z,26.46
2018-08-23T15:42:22.248Z,26.33
2018-08-23T15:44:50.717Z,26.31
2018-08-23T15:47:19.053Z,26.34
2018-08-23T15:49:47.281Z,26.27
2018-08-23T15:52:16.401Z,26.21
2018-08-23T15:54:45.020Z,26.05
2018-08-23T15:57:13.385Z,26.03
2018-08-23T15:59:41.739Z,26.00
2018-08-23T16:02:09.957Z,25.95
2018-08-23T16:04:38.416Z,25.91
2018-08-23T16:07:06.771Z,25.87
2018-08-23T16:09:35.082Z,25.80
2018-08-23T16:12:03.549Z,25.68
2018-08-23T16:14:31.896Z,25.59
2018-08-23T16:17:05.747Z,25.65
2018-08-23T16:19:39.480Z,25.49
2018-08-23T16:22:08.099Z,25.46
2018-08-23T16:24:36.515Z,25.33
2018-08-23T16:27:05.713Z,25.41
2018-08-23T16:29:33.997Z,25.29
2018-08-23T16:32:02.724Z,25.14
2018-08-23T16:34:30.879Z,25.18
2018-08-23T16:36:59.124Z,25.13
2018-08-23T16:39:27.605Z,24.92
2018-08-23T16:41:56.050Z,24.75
2018-08-23T16:44:25.341Z,24.83
2018-08-23T16:46:53.882Z,24.59
2018-08-23T16:49:22.146Z,24.42
2018-08-23T16:51:50.397Z,24.30
2018-08-23T16:54:18.637Z,23.97
2018-08-23T16:56:47.107Z,23.86
2018-08-23T16:59:19.221Z,23.72
2018-08-23T17:01:48.466Z,23.53
2018-08-23T17:04:16.858Z,23.46
2018-08-23T17:06:45.258Z,23.30
2018-08-23T17:09:13.616Z,23.17
2018-08-23T17:11:41.839Z,23.17
2018-08-23T17:14:14.052Z,23.39
2018-08-23T17:16:47.519Z,23.35
2018-08-23T17:19:15.927Z,23.47
2018-08-23T17:21:44.162Z,23.56
2018-08-23T17:24:12.654Z,23.46
2018-08-23T17:26:41.028Z,23.47
2018-08-23T17:29:09.163Z,23.31
2018-08-23T17:31:37.274Z,23.22
2018-08-23T17:34:05.467Z,23.16
2018-08-23T17:36:33.601Z,23.03
2018-08-23T17:39:01.794Z,23.11
2018-08-23T17:41:30.238Z,22.95
2018-08-23T17:43:58.537Z,22.97
2018-08-23T17:46:26.863Z,22.92
2018-08-23T17:48:55.568Z,22.64
2018-08-23T17:51:23.945Z,22.81
2018-08-23T17:53:54.974Z,22.77
2018-08-23T17:56:24.210Z,22.48
2018-08-23T17:58:52.853Z,22.39
2018-08-23T18:01:21.289Z,22.38
2018-08-23T18:03:49.975Z,22.33
2018-08-23T18:06:21.937Z,22.49
2018-08-23T18:08:51.494Z,22.54
2018-08-23T18:11:21.102Z,22.63
2018-08-23T18:13:49.517Z,22.52
2018-08-23T18:16:23.328Z,22.63
2018-08-23T18:18:51.720Z,22.52
2018-08-23T18:21:19.962Z,22.44
2018-08-23T18:23:48.779Z,22.31
2018-08-23T18:26:17.089Z,22.21
2018-08-23T18:28:48.611Z,22.28
2018-08-23T18:31:18.182Z,22.20
2018-08-23T18:33:47.870Z,22.20
2018-08-23T18:36:17.273Z,22.30
2018-08-23T18:38:47.791Z,22.28
2018-08-23T18:41:17.178Z,22.27
2018-08-23T18:43:46.156Z,22.22
2018-08-23T18:46:14.948Z,22.25
2018-08-23T18:48:43.932Z,22.27
2018-08-23T18:51:12.667Z,22.36
2018-08-23T18:53:41.163Z,22.30
2018-08-23T18:56:09.582Z,22.27
2018-08-23T18:58:38.008Z,22.20
2018-08-23T19:01:06.877Z,22.11
2018-08-23T19:03:35.277Z,21.91
2018-08-23T19:06:04.030Z,21.82
2018-08-23T19:08:32.373Z,21.84
2018-08-23T19:11:00.634Z,21.75
2018-08-23T19:13:28.967Z,21.79
2018-08-23T19:16:02.551Z,22.04
2018-08-23T19:18:31.032Z,22.06
2018-08-23T19:20:59.469Z,22.30
2018-08-23T19:23:27.635Z,22.17
2018-08-23T19:25:55.905Z,22.09
2018-08-23T19:28:24.039Z,21.97
2018-08-23T19:30:52.149Z,21.87
2018-08-23T19:33:20.504Z,21.40
2018-08-23T19:35:48.660Z,21.38
2018-08-23T19:38:16.959Z,21.15
2018-08-23T19:40:45.341Z,21.36
2018-08-23T19:43:13.636Z,21.35
2018-08-23T19:45:47.503Z,21.11
2018-08-23T19:48:15.913Z,20.80
2018-08-23T19:50:44.174Z,20.61
2018-08-23T19:53:12.481Z,20.38
2018-08-23T19:55:40.870Z,20.26
2018-08-23T19:58:09.306Z,19.99
2018-08-23T20:00:37.695Z,19.86
2018-08-23T20:03:05.932Z,19.83
2018-08-23T20:05:34.106Z,19.75
2018-08-23T20:08:02.180Z,19.87
2018-08-23T20:10:30.422Z,20.33
2018-08-23T20:12:58.631Z,20.12
2018-08-23T20:15:26.749Z,19.82
2018-08-23T20:17:55.897Z,20.03
2018-08-23T20:20:24.035Z,20.39
2018-08-23T20:22:52.230Z,20.36
2018-08-23T20:25:20.785Z,20.14
2018-08-23T20:27:49.091Z,19.85
2018-08-23T20:30:17.225Z,19.86
2018-08-23T20:32:45.461Z,19.96
2018-08-23T20:35:13.624Z,20.03
2018-08-23T20:37:41.805Z,20.07
2018-08-23T20:40:09.960Z,20.20
2018-08-23T20:42:38.150Z,20.29
2018-08-23T20:45:06.639Z,20.05
2018-08-23T20:47:34.830Z,20.10
2018-08-23T20:50:03.160Z,19.88
2018-08-23T20:52:31.319Z,19.93
2018-08-23T20:54:59.541Z,20.08
2018-08-23T20:57:27.714Z,19.95
2018-08-23T20:59:55.836Z,20.01
2018-08-23T21:02:24.012Z,20.20
2018-08-23T21:04:52.256Z,20.03
2018-08-23T21:07:20.651Z,19.85
2018-08-23T21:09:48.963Z,19.72
2018-08-23T21:12:17.095Z,19.76
2018-08-23T21:14:45.244Z,19.69
2018-08-23T21:17:13.461Z,19.51
2018-08-23T21:19:41.511Z,19.44
2018-08-23T21:22:09.690Z,19.46
2018-08-23T21:24:37.879Z,19.48
2018-08-23T21:27:06.102Z,19.35
2018-08-23T21:29:34.291Z,19.27
2018-08-23T21:32:02.450Z,19.23
2018-08-23T21:34:30.578Z,19.08
2018-08-23T21:36:58.663Z,19.10
2018-08-23T21:39:26.807Z,18.92
2018-08-23T21:41:54.864Z,18.90
2018-08-23T21:44:22.902Z,18.80
2018-08-23T21:46:50.981Z,18.90
2018-08-23T21:49:19.040Z,18.72
2018-08-23T21:51:47.056Z,18.57
2018-08-23T21:54:15.066Z,18.55
2018-08-23T21:56:43.295Z,18.42
2018-08-23T21:59:11.327Z,18.35
2018-08-23T22:01:39.373Z,18.26
2018-08-23T22:04:08.458Z,18.28
2018-08-23T22:06:36.542Z,18.33
2018-08-23T22:09:07.409Z,18.27
2018-08-23T22:11:35.415Z,18.15
2018-08-23T22:14:03.539Z,17.98
2018-08-23T22:16:31.682Z,18.19
2018-08-23T22:18:59.812Z,17.91
2018-08-23T22:21:27.826Z,17.76
2018-08-23T22:23:55.882Z,17.78
2018-08-23T22:26:23.900Z,17.59
2018-08-23T22:28:51.916Z,17.71
2018-08-23T22:31:19.938Z,17.68
2018-08-23T22:33:48.104Z,17.58
2018-08-23T22:36:16.186Z,17.64
2018-08-23T22:38:44.263Z,17.50
2018-08-23T22:41:12.333Z,17.48
2018-08-23T22:43:40.352Z,17.44
2018-08-23T22:46:08.368Z,17.47
2018-08-23T22:48:36.545Z,17.42
2018-08-23T22:51:04.988Z,17.35
2018-08-23T22:53:33.084Z,17.24
2018-08-23T22:56:01.323Z,17.15
2018-08-23T22:58:29.325Z,17.18
2018-08-23T23:00:57.514Z,17.07
2018-08-23T23:03:31.202Z,17.06
2018-08-23T23:05:59.197Z,17.07
2018-08-23T23:08:27.266Z,16.94
2018-08-23T23:10:55.296Z,16.91
2018-08-23T23:13:23.498Z,16.84
2018-08-23T23:15:51.598Z,16.82
2018-08-23T23:18:19.832Z,16.81
2018-08-23T23:20:47.983Z,16.74
2018-08-23T23:23:16.095Z,16.67
2018-08-23T23:25:44.182Z,16.70
2018-08-23T23:28:12.348Z,16.61
2018-08-23T23:30:40.513Z,16.58
2018-08-23T23:33:08.660Z,16.59
2018-08-23T23:35:36.798Z,16.54
2018-08-23T23:38:05.060Z,16.44
2018-08-23T23:40:33.206Z,16.42
2018-08-23T23:43:01.385Z,16.39
2018-08-23T23:45:29.507Z,16.33
2018-08-23T23:47:57.500Z,16.36
2018-08-23T23:50:25.522Z,16.31
2018-08-23T23:52:53.779Z,16.30
2018-08-23T23:55:21.918Z,16.23
2018-08-23T23:57:50.006Z,16.26
